createdAt,value
2023-03-18T00:07:14.009Z,49.30
2023-03-18T00:17:20.508Z,44.10
2023-03-18T00:27:26.848Z,43.80
2023-03-18T00:37:34.545Z,42.40
2023-03-18T00:47:41.015Z,42.50
2023-03-18T00:57:47.407Z,45.20
2023-03-18T01:07:54.329Z,41.40
2023-03-18T01:18:00.852Z,40.70
2023-03-18T01:28:07.398Z,40.00
2023-03-18T01:38:13.796Z,44.30
2023-03-18T01:48:22.390Z,45.90
2023-03-18T01:58:35.301Z,43.50
2023-03-18T02:08:42.073Z,45.10
2023-03-18T02:18:54.088Z,47.70
2023-03-18T02:29:04.677Z,43.60
2023-03-18T02:39:15.466Z,46.00
2023-03-18T02:49:23.321Z,46.90
2023-03-18T02:59:30.567Z,48.50
2023-03-18T03:09:36.932Z,45.30
2023-03-18T03:19:43.254Z,46.80
2023-03-18T03:29:49.626Z,48.30
2023-03-18T03:39:56.209Z,47.10
2023-03-18T03:50:02.485Z,43.50
2023-03-18T04:00:14.843Z,42.50
2023-03-18T04:10:22.781Z,51.30
2023-03-18T04:20:29.078Z,46.20
2023-03-18T04:30:35.451Z,42.30
2023-03-18T04:40:42.272Z,42.50
2023-03-18T04:50:48.543Z,41.20
2023-03-18T05:00:54.984Z,37.80
2023-03-18T05:11:01.559Z,38.60
2023-03-18T05:21:08.921Z,38.70
2023-03-18T05:31:15.222Z,38.60
2023-03-18T05:41:21.612Z,40.00
2023-03-18T05:51:27.878Z,42.40
2023-03-18T06:01:35.172Z,44.50
2023-03-18T06:11:41.553Z,42.60
2023-03-18T06:21:47.862Z,38.90
2023-03-18T06:31:54.316Z,42.80
2023-03-18T06:42:00.590Z,43.40
2023-03-18T06:52:07.026Z,40.20
2023-03-18T07:02:16.584Z,41.40
2023-03-18T07:12:23.346Z,45.00
2023-03-18T07:22:30.391Z,43.50
2023-03-18T07:32:38.063Z,47.90
2023-03-18T07:42:44.459Z,42.90
2023-03-18T07:52:50.748Z,44.10
2023-03-18T08:02:57.098Z,43.60
2023-03-18T08:13:04.343Z,45.20
2023-03-18T08:23:10.641Z,43.50
2023-03-18T08:33:17.233Z,42.80
2023-03-18T08:43:23.621Z,41.00
2023-03-18T08:53:29.901Z,38.80
2023-03-18T09:03:35.843Z,34.10
2023-03-18T09:13:42.348Z,31.40
2023-03-18T09:23:48.705Z,27.50
2023-03-18T09:33:54.995Z,24.80
2023-03-18T09:44:25.750Z,25.60
2023-03-18T09:54:42.328Z,25.30
2023-03-18T10:04:54.976Z,23.70
2023-03-18T10:15:05.443Z,18.60
2023-03-18T10:25:20.181Z,17.90
2023-03-18T10:36:01.538Z,15.80
2023-03-18T10:46:10.671Z,17.80
2023-03-18T10:56:17.066Z,24.80
2023-03-18T11:06:42.832Z,19.00
2023-03-18T11:16:51.341Z,19.70
2023-03-18T11:26:58.673Z,18.40
2023-03-18T11:37:07.060Z,21.60
2023-03-18T11:47:22.263Z,19.20
2023-03-18T11:57:59.800Z,17.50
2023-03-18T12:08:10.991Z,15.70
2023-03-18T12:18:25.982Z,18.80
2023-03-18T12:28:36.050Z,13.50
2023-03-18T12:39:07.138Z,16.60
2023-03-18T12:49:26.974Z,19.50
2023-03-18T12:59:41.499Z,17.50
2023-03-18T13:09:57.403Z,15.40
2023-03-18T13:20:15.627Z,16.80
2023-03-18T13:31:00.524Z,14.60
2023-03-18T13:41:13.227Z,16.00
2023-03-18T13:51:21.665Z,16.30
2023-03-18T14:01:30.805Z,14.20
2023-03-18T14:11:51.466Z,15.60
2023-03-18T14:22:22.796Z,14.60
2023-03-18T14:32:34.889Z,16.60
2023-03-18T14:42:47.160Z,16.70
2023-03-18T14:52:57.012Z,17.30
2023-03-18T15:03:16.321Z,14.20
2023-03-18T15:13:24.328Z,13.90
2023-03-18T15:23:39.706Z,15.80
2023-03-18T15:33:48.663Z,17.20
2023-03-18T15:43:55.035Z,13.40
2023-03-18T15:54:10.544Z,13.50
2023-03-18T16:04:18.385Z,20.40
2023-03-18T16:14:28.741Z,23.40
2023-03-18T16:24:35.616Z,27.70
2023-03-18T16:34:45.417Z,30.90
2023-03-18T16:44:53.380Z,54.90
2023-03-18T16:54:59.670Z,40.70
2023-03-18T17:05:07.715Z,55.10
2023-03-18T17:15:16.611Z,46.20
2023-03-18T17:25:22.549Z,52.00
2023-03-18T17:35:29.232Z,38.20
2023-03-18T17:45:36.629Z,33.10
2023-03-18T17:55:42.960Z,40.90
2023-03-18T18:05:49.431Z,36.10
2023-03-18T18:15:55.792Z,40.60
2023-03-18T18:26:10.112Z,43.10
2023-03-18T18:36:16.943Z,49.10
2023-03-18T18:46:24.674Z,50.30
2023-03-18T18:56:37.997Z,57.00
2023-03-18T19:06:44.970Z,56.90
2023-03-18T19:16:52.878Z,48.60
2023-03-18T19:27:02.582Z,48.20
2023-03-18T19:37:22.453Z,50.40
2023-03-18T19:47:30.628Z,51.90
2023-03-18T19:57:38.215Z,45.40
2023-03-18T20:07:44.594Z,44.40
2023-03-18T20:17:52.270Z,47.50
2023-03-18T20:27:59.410Z,59.20
2023-03-18T20:38:11.518Z,50.70
2023-03-18T20:48:19.202Z,47.90
2023-03-18T20:58:27.731Z,50.80
2023-03-18T21:08:34.632Z,55.40
2023-03-18T21:18:43.883Z,46.10
2023-03-18T21:28:50.884Z,42.80
2023-03-18T21:38:57.454Z,47.00
2023-03-18T21:49:03.733Z,47.00
2023-03-18T21:59:10.084Z,45.40
2023-03-18T22:09:16.390Z,47.00
2023-03-18T22:19:22.745Z,46.00
2023-03-18T22:29:29.073Z,59.20
2023-03-18T22:39:35.378Z,52.00
2023-03-18T22:49:42.013Z,56.80
2023-03-18T22:59:48.896Z,79.10
2023-03-18T23:09:59.929Z,89.80
2023-03-18T23:20:06.388Z,58.90
2023-03-18T23:30:14.498Z,43.80
2023-03-18T23:40:21.241Z,42.80
2023-03-18T23:50:27.571Z,44.00
